sensor_id;sensor_type;location;lat;lon;timestamp;pressure;altitude;pressure_sealevel;temperature;humidity
45941;BME280;31858;46.008;8.978;2023-11-22T00:08:27;93976.69;;;7.24;100.00
45941;BME280;31858;46.008;8.978;2023-11-22T00:18:30;93967.25;;;7.26;100.00
45941;BME280;31858;46.008;8.978;2023-11-22T00:28:32;93971.94;;;7.40;99.42
45941;BME280;31858;46.008;8.978;2023-11-22T00:38:36;93967.31;;;7.33;100.00
45941;BME280;31858;46.008;8.978;2023-11-22T00:48:39;93974.22;;;7.04;100.00
45941;BME280;31858;46.008;8.978;2023-11-22T00:58:42;93981.84;;;7.09;100.00
45941;BME280;31858;46.008;8.978;2023-11-22T01:08:44;93977.16;;;7.33;100.00
45941;BME280;31858;46.008;8.978;2023-11-22T01:18:48;93969.59;;;7.72;73.10
45941;BME280;31858;46.008;8.978;2023-11-22T01:28:50;93953.88;;;8.04;59.75
45941;BME280;31858;46.008;8.978;2023-11-22T01:38:53;93959.53;;;8.54;55.12
45941;BME280;31858;46.008;8.978;2023-11-22T01:48:56;93943.00;;;8.85;52.21
45941;BME280;31858;46.008;8.978;2023-11-22T01:58:59;93945.72;;;9.17;49.46
45941;BME280;31858;46.008;8.978;2023-11-22T02:09:01;93951.47;;;9.33;49.03
45941;BME280;31858;46.008;8.978;2023-11-22T02:19:05;93933.28;;;9.53;47.28
45941;BME280;31858;46.008;8.978;2023-11-22T02:29:08;93936.31;;;9.62;47.26
45941;BME280;31858;46.008;8.978;2023-11-22T02:39:10;93933.66;;;9.62;47.01
45941;BME280;31858;46.008;8.978;2023-11-22T02:49:15;93912.75;;;9.54;47.14
45941;BME280;31858;46.008;8.978;2023-11-22T02:59:16;93926.81;;;9.61;45.87
45941;BME280;31858;46.008;8.978;2023-11-22T03:09:19;93924.94;;;9.72;45.98
45941;BME280;31858;46.008;8.978;2023-11-22T03:19:23;93911.63;;;9.65;44.97
45941;BME280;31858;46.008;8.978;2023-11-22T03:29:26;93922.25;;;9.79;43.52
45941;BME280;31858;46.008;8.978;2023-11-22T03:39:28;93909.34;;;9.71;43.92
45941;BME280;31858;46.008;8.978;2023-11-22T03:49:31;93918.47;;;9.73;43.21
45941;BME280;31858;46.008;8.978;2023-11-22T03:59:34;93922.25;;;9.69;42.63
45941;BME280;31858;46.008;8.978;2023-11-22T04:09:37;93925.31;;;9.89;41.74
45941;BME280;31858;46.008;8.978;2023-11-22T04:19:39;93939.75;;;9.88;40.90
45941;BME280;31858;46.008;8.978;2023-11-22T04:29:42;93954.19;;;9.94;40.84
45941;BME280;31858;46.008;8.978;2023-11-22T04:39:43;93964.09;;;9.90;39.58
45941;BME280;31858;46.008;8.978;2023-11-22T04:49:46;93983.06;;;9.77;39.52
45941;BME280;31858;46.008;8.978;2023-11-22T04:59:48;93964.06;;;9.75;39.21
45941;BME280;31858;46.008;8.978;2023-11-22T05:09:51;93986.13;;;9.72;39.46
45941;BME280;31858;46.008;8.978;2023-11-22T05:19:52;93987.25;;;9.86;37.87
45941;BME280;31858;46.008;8.978;2023-11-22T05:29:55;93996.75;;;9.79;38.59
45941;BME280;31858;46.008;8.978;2023-11-22T05:39:57;94007.78;;;9.74;36.84
45941;BME280;31858;46.008;8.978;2023-11-22T05:50:02;94021.09;;;9.85;37.59
45941;BME280;31858;46.008;8.978;2023-11-22T06:00:04;94034.78;;;9.87;36.75
45941;BME280;31858;46.008;8.978;2023-11-22T06:10:08;94051.88;;;9.82;37.59
45941;BME280;31858;46.008;8.978;2023-11-22T06:20:11;94059.09;;;9.82;38.25
45941;BME280;31858;46.008;8.978;2023-11-22T06:30:15;94075.84;;;9.82;37.57
45941;BME280;31858;46.008;8.978;2023-11-22T06:40:17;94082.69;;;9.91;37.34
45941;BME280;31858;46.008;8.978;2023-11-22T06:50:20;94092.19;;;9.95;37.85
45941;BME280;31858;46.008;8.978;2023-11-22T07:00:21;94111.22;;;9.94;37.47
45941;BME280;31858;46.008;8.978;2023-11-22T07:10:24;94136.66;;;9.88;37.32
45941;BME280;31858;46.008;8.978;2023-11-22T07:20:27;94152.28;;;10.00;37.03
45941;BME280;31858;46.008;8.978;2023-11-22T07:30:30;94159.06;;;9.83;38.57
45941;BME280;31858;46.008;8.978;2023-11-22T07:40:34;94180.81;;;9.99;37.69
45941;BME280;31858;46.008;8.978;2023-11-22T07:50:37;94173.16;;;9.91;36.63
45941;BME280;31858;46.008;8.978;2023-11-22T08:00:40;94188.81;;;10.06;38.01
45941;BME280;31858;46.008;8.978;2023-11-22T08:10:44;94189.91;;;9.95;37.06
45941;BME280;31858;46.008;8.978;2023-11-22T08:20:48;94205.94;;;10.05;37.48
45941;BME280;31858;46.008;8.978;2023-11-22T08:30:51;94219.63;;;10.07;38.14
45941;BME280;31858;46.008;8.978;2023-11-22T08:40:53;94234.09;;;10.10;38.00
45941;BME280;31858;46.008;8.978;2023-11-22T08:50:56;94242.09;;;10.13;36.49
45941;BME280;31858;46.008;8.978;2023-11-22T09:00:58;94279.84;;;10.37;36.53
45941;BME280;31858;46.008;8.978;2023-11-22T09:11:02;94287.47;;;10.38;37.15
45941;BME280;31858;46.008;8.978;2023-11-22T09:21:06;94287.84;;;10.44;36.99
45941;BME280;31858;46.008;8.978;2023-11-22T09:31:11;94313.84;;;10.86;36.19
45941;BME280;31858;46.008;8.978;2023-11-22T09:41:18;94324.91;;;10.99;37.56
45941;BME280;31858;46.008;8.978;2023-11-22T09:51:23;94349.34;;;11.33;36.37
45941;BME280;31858;46.008;8.978;2023-11-22T10:01:27;94355.84;;;11.50;35.13
45941;BME280;31858;46.008;8.978;2023-11-22T10:11:32;94354.69;;;11.65;36.58
45941;BME280;31858;46.008;8.978;2023-11-22T10:21:35;94353.91;;;11.96;34.91
45941;BME280;31858;46.008;8.978;2023-11-22T10:31:41;94350.81;;;12.23;35.28
45941;BME280;31858;46.008;8.978;2023-11-22T10:41:45;94349.25;;;12.32;35.51
45941;BME280;31858;46.008;8.978;2023-11-22T10:51:52;94368.69;;;12.47;34.58
45941;BME280;31858;46.008;8.978;2023-11-22T11:01:56;94381.28;;;12.54;36.65
45941;BME280;31858;46.008;8.978;2023-11-22T11:12:03;94390.38;;;12.70;35.35
45941;BME280;31858;46.008;8.978;2023-11-22T11:22:07;94395.75;;;12.67;34.80
45941;BME280;31858;46.008;8.978;2023-11-22T11:32:11;94415.53;;;12.87;32.87
45941;BME280;31858;46.008;8.978;2023-11-22T11:42:17;94399.81;;;12.96;34.12
45941;BME280;31858;46.008;8.978;2023-11-22T11:52:20;94401.63;;;13.17;32.77
45941;BME280;31858;46.008;8.978;2023-11-22T12:02:21;94422.22;;;13.31;32.54
45941;BME280;31858;46.008;8.978;2023-11-22T12:12:24;94440.53;;;13.36;32.41
45941;BME280;31858;46.008;8.978;2023-11-22T12:22:26;94438.94;;;13.49;31.27
45941;BME280;31858;46.008;8.978;2023-11-22T12:32:29;94424.78;;;13.49;32.12
45941;BME280;31858;46.008;8.978;2023-11-22T12:42:31;94417.06;;;13.61;31.56
45941;BME280;31858;46.008;8.978;2023-11-22T12:52:33;94405.09;;;13.77;32.51
45941;BME280;31858;46.008;8.978;2023-11-22T13:02:35;94402.63;;;13.96;31.92
45941;BME280;31858;46.008;8.978;2023-11-22T13:12:38;94406.09;;;13.97;32.70
45941;BME280;31858;46.008;8.978;2023-11-22T13:22:40;94419.03;;;14.06;30.79
45941;BME280;31858;46.008;8.978;2023-11-22T13:32:43;94406.72;;;14.12;31.97
45941;BME280;31858;46.008;8.978;2023-11-22T13:42:46;94418.50;;;14.21;30.93
45941;BME280;31858;46.008;8.978;2023-11-22T13:52:50;94426.50;;;14.25;31.64
45941;BME280;31858;46.008;8.978;2023-11-22T14:02:54;94432.19;;;14.30;30.87
45941;BME280;31858;46.008;8.978;2023-11-22T14:12:58;94433.00;;;14.27;30.96
45941;BME280;31858;46.008;8.978;2023-11-22T14:23:00;94439.97;;;14.18;30.15
45941;BME280;31858;46.008;8.978;2023-11-22T14:33:03;94454.91;;;14.15;31.01
45941;BME280;31858;46.008;8.978;2023-11-22T14:43:06;94461.53;;;14.03;30.61
45941;BME280;31858;46.008;8.978;2023-11-22T14:53:09;94475.38;;;13.91;31.10
45941;BME280;31858;46.008;8.978;2023-11-22T15:03:12;94483.88;;;13.79;30.25
45941;BME280;31858;46.008;8.978;2023-11-22T15:13:15;94491.22;;;13.64;31.04
45941;BME280;31858;46.008;8.978;2023-11-22T15:23:17;94507.00;;;13.48;28.95
45941;BME280;31858;46.008;8.978;2023-11-22T15:33:21;94526.97;;;13.12;30.68
45941;BME280;31858;46.008;8.978;2023-11-22T15:43:23;94557.63;;;12.86;29.72
45941;BME280;31858;46.008;8.978;2023-11-22T15:53:28;94573.69;;;12.54;30.36
45941;BME280;31858;46.008;8.978;2023-11-22T16:03:30;94584.34;;;12.22;29.83
45941;BME280;31858;46.008;8.978;2023-11-22T16:13:34;94598.06;;;11.99;30.13
45941;BME280;31858;46.008;8.978;2023-11-22T16:23:36;94614.34;;;11.76;30.33
45941;BME280;31858;46.008;8.978;2023-11-22T16:33:39;94606.34;;;11.65;30.17
45941;BME280;31858;46.008;8.978;2023-11-22T16:43:41;94629.16;;;11.56;31.21
45941;BME280;31858;46.008;8.978;2023-11-22T16:53:43;94635.88;;;11.28;31.30
45941;BME280;31858;46.008;8.978;2023-11-22T17:03:45;94654.44;;;11.10;30.86
45941;BME280;31858;46.008;8.978;2023-11-22T17:13:48;94654.28;;;10.89;30.96
45941;BME280;31858;46.008;8.978;2023-11-22T17:23:50;94682.41;;;10.83;32.60
45941;BME280;31858;46.008;8.978;2023-11-22T17:33:53;94718.66;;;10.51;31.69
45941;BME280;31858;46.008;8.978;2023-11-22T17:43:55;94746.75;;;10.44;32.57
45941;BME280;31858;46.008;8.978;2023-11-22T17:53:58;94756.63;;;10.40;32.77
45941;BME280;31858;46.008;8.978;2023-11-22T18:04:00;94745.91;;;10.03;34.10
45941;BME280;31858;46.008;8.978;2023-11-22T18:14:03;94761.97;;;9.80;36.99
45941;BME280;31858;46.008;8.978;2023-11-22T18:24:07;94775.88;;;9.70;35.06
45941;BME280;31858;46.008;8.978;2023-11-22T18:34:11;94774.25;;;9.62;36.09
45941;BME280;31858;46.008;8.978;2023-11-22T18:44:15;94800.59;;;9.44;37.02
45941;BME280;31858;46.008;8.978;2023-11-22T18:54:18;94815.44;;;9.23;37.26
45941;BME280;31858;46.008;8.978;2023-11-22T19:04:21;94829.66;;;9.07;37.83
45941;BME280;31858;46.008;8.978;2023-11-22T19:14:24;94847.59;;;8.91;37.85
45941;BME280;31858;46.008;8.978;2023-11-22T19:24:25;94870.09;;;8.78;38.59
45941;BME280;31858;46.008;8.978;2023-11-22T19:34:28;94880.66;;;8.74;37.95
45941;BME280;31858;46.008;8.978;2023-11-22T19:44:30;94878.22;;;8.66;38.33
45941;BME280;31858;46.008;8.978;2023-11-22T19:54:33;94910.22;;;8.54;39.03
45941;BME280;31858;46.008;8.978;2023-11-22T20:04:35;94916.25;;;8.50;39.48
45941;BME280;31858;46.008;8.978;2023-11-22T20:14:38;94921.13;;;8.48;39.93
45941;BME280;31858;46.008;8.978;2023-11-22T20:24:40;94933.91;;;8.43;39.63
45941;BME280;31858;46.008;8.978;2023-11-22T20:34:42;94950.00;;;8.50;40.94
45941;BME280;31858;46.008;8.978;2023-11-22T20:44:44;94951.91;;;8.34;41.10
45941;BME280;31858;46.008;8.978;2023-11-22T20:54:47;94944.13;;;8.25;42.83
45941;BME280;31858;46.008;8.978;2023-11-22T21:04:49;94953.72;;;8.14;41.65
45941;BME280;31858;46.008;8.978;2023-11-22T21:14:52;94955.09;;;8.08;43.17
45941;BME280;31858;46.008;8.978;2023-11-22T21:24:54;94971.09;;;8.11;41.92
45941;BME280;31858;46.008;8.978;2023-11-22T21:34:57;94980.69;;;8.16;41.49
45941;BME280;31858;46.008;8.978;2023-11-22T21:44:59;94989.09;;;8.02;42.37
45941;BME280;31858;46.008;8.978;2023-11-22T21:55:07;94981.56;;;7.89;44.92
45941;BME280;31858;46.008;8.978;2023-11-22T22:05:09;94990.13;;;7.82;45.30
45941;BME280;31858;46.008;8.978;2023-11-22T22:15:14;95004.00;;;7.75;47.14
45941;BME280;31858;46.008;8.978;2023-11-22T22:25:15;95014.00;;;7.66;47.28
45941;BME280;31858;46.008;8.978;2023-11-22T22:35:19;95023.56;;;7.55;47.94
45941;BME280;31858;46.008;8.978;2023-11-22T22:45:21;95029.94;;;7.38;49.68
45941;BME280;31858;46.008;8.978;2023-11-22T22:55:24;95010.75;;;7.29;48.97
45941;BME280;31858;46.008;8.978;2023-11-22T23:05:26;95014.66;;;7.19;61.04
45941;BME280;31858;46.008;8.978;2023-11-22T23:15:29;95020.09;;;7.11;58.50
45941;BME280;31858;46.008;8.978;2023-11-22T23:25:30;95015.94;;;6.98;54.29
45941;BME280;31858;46.008;8.978;2023-11-22T23:35:33;95002.47;;;7.03;55.80
45941;BME280;31858;46.008;8.978;2023-11-22T23:45:35;95016.31;;;6.84;54.66
45941;BME280;31858;46.008;8.978;2023-11-22T23:55:39;95017.44;;;6.71;57.86
